createdAt,value
2017-05-28T00:00:14.576Z,42.86
2017-05-28T00:01:23.535Z,42.93
2017-05-28T00:02:32.501Z,42.57
2017-05-28T00:03:41.772Z,43.15
2017-05-28T00:04:50.746Z,43.03
2017-05-28T00:05:59.725Z,42.76
2017-05-28T00:07:08.686Z,43.05
2017-05-28T00:08:17.647Z,42.74
2017-05-28T00:09:26.923Z,42.84
2017-05-28T00:10:35.891Z,43.54
2017-05-28T00:11:44.854Z,43.51
2017-05-28T00:12:53.813Z,43.44
2017-05-28T00:14:02.778Z,43.34
2017-05-28T00:15:12.047Z,43.13
2017-05-28T00:16:21.007Z,43.51
2017-05-28T00:17:30.300Z,43.71
2017-05-28T00:18:39.263Z,43.71
2017-05-28T00:19:48.232Z,43.41
2017-05-28T00:20:57.493Z,43.51
2017-05-28T00:22:06.456Z,43.51
2017-05-28T00:23:15.752Z,43.99
2017-05-28T00:24:24.719Z,43.9
2017-05-28T00:25:33.680Z,43.9
2017-05-28T00:26:42.942Z,43.99
2017-05-28T00:27:51.905Z,44.19
2017-05-28T00:29:00.877Z,44.28
2017-05-28T00:30:09.834Z,44.09
2017-05-28T00:31:18.803Z,44.67
2017-05-28T00:32:28.358Z,44.38
2017-05-28T00:33:37.409Z,44.45
2017-05-28T00:34:46.379Z,44.65
2017-05-28T00:35:55.342Z,44.74
2017-05-28T00:37:04.308Z,44.55
2017-05-28T00:38:13.611Z,44.74
2017-05-28T00:39:22.573Z,45.22
2017-05-28T00:40:31.537Z,45.03
2017-05-28T00:41:40.499Z,45.03
2017-05-28T00:42:49.467Z,45.13
2017-05-28T00:43:59.061Z,45.32
2017-05-28T00:45:08.032Z,45.32
2017-05-28T00:46:16.991Z,45.32
2017-05-28T00:47:26.024Z,45.22
2017-05-28T00:48:34.995Z,45.7
2017-05-28T00:49:44.257Z,45.61
2017-05-28T00:50:53.224Z,45.51
2017-05-28T00:52:02.192Z,45.9
2017-05-28T00:53:11.159Z,45.8
2017-05-28T00:54:20.125Z,45.8
2017-05-28T00:55:29.437Z,46.38
2017-05-28T00:56:38.400Z,46.38
2017-05-28T00:57:47.364Z,46.47
2017-05-28T00:58:56.328Z,46.95
2017-05-28T01:00:05.293Z,46.74
2017-05-28T01:01:14.503Z,46.36
2017-05-28T01:02:23.473Z,46.95
2017-05-28T01:03:32.433Z,46.84
2017-05-28T01:04:41.393Z,47.03
2017-05-28T01:05:50.358Z,46.84
2017-05-28T01:06:59.580Z,46.93
2017-05-28T01:08:08.548Z,47.13
2017-05-28T01:09:17.515Z,47.13
2017-05-28T01:10:26.487Z,47.22
2017-05-28T01:11:35.451Z,47.51
2017-05-28T01:12:44.665Z,47.7
2017-05-28T01:13:53.625Z,47.61
2017-05-28T01:15:02.678Z,48.08
2017-05-28T01:16:11.642Z,47.7
2017-05-28T01:17:20.607Z,47.51
2017-05-28T01:18:29.825Z,47.7
2017-05-28T01:19:38.789Z,48.28
2017-05-28T01:20:47.751Z,48.18
2017-05-28T01:21:56.715Z,47.89
2017-05-28T01:23:05.735Z,47.7
2017-05-28T01:24:14.950Z,47.89
2017-05-28T01:25:23.917Z,48.47
2017-05-28T01:26:32.887Z,48.28
2017-05-28T01:27:41.856Z,48.74
2017-05-28T01:28:50.820Z,48.18
2017-05-28T01:30:00.085Z,48.28
2017-05-28T01:31:09.133Z,48.45
2017-05-28T01:32:18.102Z,48.38
2017-05-28T01:33:27.060Z,48.38
2017-05-28T01:34:36.350Z,48.76
2017-05-28T01:35:45.613Z,48.54
2017-05-28T01:36:54.578Z,48.38
2017-05-28T01:38:03.540Z,48.64
2017-05-28T01:39:12.507Z,48.35
2017-05-28T01:40:21.465Z,48.38
2017-05-28T01:41:30.670Z,48.57
2017-05-28T01:42:39.633Z,48.93
2017-05-28T01:43:48.611Z,49.12
2017-05-28T01:44:57.586Z,49.12
2017-05-28T01:46:06.545Z,49.22
2017-05-28T01:47:15.755Z,49.41
2017-05-28T01:48:24.720Z,49.6
2017-05-28T01:49:33.675Z,49.12
2017-05-28T01:50:42.638Z,49.31
2017-05-28T01:51:51.597Z,49.41
2017-05-28T01:53:00.817Z,49.31
2017-05-28T01:54:09.781Z,49.51
2017-05-28T01:55:18.763Z,49.31
2017-05-28T01:56:28.047Z,49.41
2017-05-28T01:57:37.007Z,49.6
2017-05-28T01:58:46.271Z,49.79
2017-05-28T01:59:55.239Z,50.08
2017-05-28T02:01:04.206Z,49.89
2017-05-28T02:02:13.163Z,49.79
2017-05-28T02:03:22.130Z,49.89
2017-05-28T02:04:31.350Z,50.37
2017-05-28T02:05:40.315Z,50.27
2017-05-28T02:06:49.275Z,50.37
2017-05-28T02:07:58.235Z,50.37
2017-05-28T02:09:07.200Z,50.27
2017-05-28T02:10:16.414Z,50.27
2017-05-28T02:11:25.373Z,50.37
2017-05-28T02:12:34.334Z,50.44
2017-05-28T02:13:43.298Z,50.37
2017-05-28T02:14:52.260Z,50.63
2017-05-28T02:16:01.472Z,50.54
2017-05-28T02:17:10.438Z,50.73
2017-05-28T02:18:19.490Z,51.21
2017-05-28T02:19:28.457Z,51.11
2017-05-28T02:20:37.424Z,51.04
2017-05-28T02:21:46.637Z,51.11
2017-05-28T02:22:55.690Z,51.11
2017-05-28T02:24:04.650Z,51.11
2017-05-28T02:25:13.608Z,51.11
2017-05-28T02:26:22.569Z,50.82
2017-05-28T02:27:31.780Z,51.02
2017-05-28T02:28:40.739Z,51.4
2017-05-28T02:29:49.698Z,51.59
2017-05-28T02:30:58.656Z,51.5
2017-05-28T02:32:07.622Z,51.69
2017-05-28T02:33:16.884Z,51.88
2017-05-28T02:34:25.937Z,51.59
2017-05-28T02:35:34.899Z,51.69
2017-05-28T02:36:43.861Z,51.88
2017-05-28T02:37:52.821Z,51.69
2017-05-28T02:39:02.034Z,51.79
2017-05-28T02:40:10.992Z,51.88
2017-05-28T02:41:19.956Z,51.98
2017-05-28T02:42:28.924Z,52.17
2017-05-28T02:43:37.884Z,52.36
2017-05-28T02:44:47.100Z,52.08
2017-05-28T02:45:56.071Z,52.36
2017-05-28T02:47:05.032Z,52.26
2017-05-28T02:48:13.995Z,52.46
2017-05-28T02:49:23.038Z,52.36
2017-05-28T02:50:32.575Z,52.26
2017-05-28T02:51:41.534Z,52.26
2017-05-28T02:52:50.507Z,52.65
2017-05-28T02:53:59.466Z,52.36
2017-05-28T02:55:08.430Z,52.55
2017-05-28T02:56:17.648Z,52.75
2017-05-28T02:57:26.607Z,52.75
2017-05-28T02:58:35.573Z,52.75
2017-05-28T02:59:44.538Z,52.75
2017-05-28T03:00:53.502Z,53.03
2017-05-28T03:02:02.709Z,52.81
2017-05-28T03:03:11.761Z,53.2
2017-05-28T03:04:20.724Z,52.91
2017-05-28T03:05:29.692Z,52.94
2017-05-28T03:06:38.648Z,53.39
2017-05-28T03:07:47.864Z,53.68
2017-05-28T03:08:56.922Z,53.39
2017-05-28T03:10:06.204Z,53.68
2017-05-28T03:11:15.169Z,53.58
2017-05-28T03:12:24.130Z,53.58
2017-05-28T03:13:33.340Z,53.49
2017-05-28T03:14:42.388Z,53.49
2017-05-28T03:15:51.355Z,53.49
2017-05-28T03:17:00.336Z,53.39
2017-05-28T03:18:09.290Z,54.06
2017-05-28T03:19:18.503Z,54.06
2017-05-28T03:20:27.467Z,53.87
2017-05-28T03:21:36.431Z,54.16
2017-05-28T03:22:45.392Z,53.97
2017-05-28T03:23:54.358Z,53.87
2017-05-28T03:25:03.617Z,53.97
2017-05-28T03:26:12.583Z,54.06
2017-05-28T03:27:21.545Z,54.06
2017-05-28T03:28:30.514Z,53.97
2017-05-28T03:29:39.799Z,53.87
2017-05-28T03:30:49.009Z,54.06
2017-05-28T03:31:57.971Z,53.78
2017-05-28T03:33:06.935Z,53.97
2017-05-28T03:34:15.901Z,53.97
2017-05-28T03:35:24.859Z,54.16
2017-05-28T03:36:34.067Z,54.25
2017-05-28T03:37:43.035Z,54.45
2017-05-28T03:38:51.998Z,54.64
2017-05-28T03:40:00.961Z,54.45
2017-05-28T03:41:10.254Z,54.06
2017-05-28T03:42:19.473Z,54.25
2017-05-28T03:43:28.517Z,54.25
2017-05-28T03:44:37.480Z,54.16
2017-05-28T03:45:46.533Z,54.16
2017-05-28T03:46:55.494Z,53.87
2017-05-28T03:48:04.702Z,54.25
2017-05-28T03:49:13.679Z,53.97
2017-05-28T03:50:22.728Z,53.97
2017-05-28T03:51:31.687Z,54.06
2017-05-28T03:52:40.645Z,54.16
2017-05-28T03:53:49.856Z,53.97
2017-05-28T03:54:58.821Z,54.06
2017-05-28T03:56:07.785Z,54.06
2017-05-28T03:57:16.741Z,54.06
2017-05-28T03:58:25.705Z,54.06
2017-05-28T03:59:35.012Z,54.16
2017-05-28T04:00:43.980Z,54.06
2017-05-28T04:01:53.030Z,53.97
2017-05-28T04:03:01.992Z,54.06
2017-05-28T04:04:10.953Z,54.16
2017-05-28T04:05:20.256Z,53.97
2017-05-28T04:06:29.218Z,54.06
2017-05-28T04:07:38.182Z,54.16
2017-05-28T04:08:47.149Z,53.97
2017-05-28T04:09:56.113Z,53.78
2017-05-28T04:11:05.408Z,54.35
2017-05-28T04:12:14.370Z,54.06
2017-05-28T04:13:23.334Z,54.16
2017-05-28T04:14:32.295Z,54.16
2017-05-28T04:15:41.266Z,54.25
2017-05-28T04:16:50.560Z,54.16
2017-05-28T04:17:59.520Z,54.06
2017-05-28T04:19:08.627Z,54.25
2017-05-28T04:20:17.588Z,54.25
2017-05-28T04:21:26.547Z,54.35
2017-05-28T04:22:35.764Z,54.25
2017-05-28T04:23:44.717Z,53.97
2017-05-28T04:24:53.684Z,54.16
2017-05-28T04:26:02.646Z,54.16
2017-05-28T04:27:11.612Z,54.25
2017-05-28T04:28:20.911Z,54.06
2017-05-28T04:29:29.877Z,53.97
2017-05-28T04:30:38.842Z,54.25
2017-05-28T04:31:47.892Z,53.87
2017-05-28T04:32:56.854Z,53.78
2017-05-28T04:34:06.394Z,54.06
2017-05-28T04:35:15.350Z,54.06
2017-05-28T04:36:24.315Z,54.16
2017-05-28T04:37:33.281Z,53.87
2017-05-28T04:38:42.259Z,54.06
2017-05-28T04:39:51.475Z,53.8
2017-05-28T04:41:00.437Z,53.61
2017-05-28T04:42:09.484Z,53.39
2017-05-28T04:43:18.492Z,54.06
2017-05-28T04:44:27.466Z,53.58
2017-05-28T04:45:36.681Z,53.49
2017-05-28T04:46:45.640Z,53.58
2017-05-28T04:47:54.602Z,54
2017-05-28T04:49:03.558Z,54
2017-05-28T04:50:12.522Z,54
2017-05-28T04:51:21.735Z,54.09
2017-05-28T04:52:30.694Z,54.09
2017-05-28T04:53:39.655Z,53.8
2017-05-28T04:54:48.618Z,53.9
2017-05-28T04:55:57.587Z,54.09
2017-05-28T04:57:06.801Z,53.52
2017-05-28T04:58:15.852Z,52.94
2017-05-28T04:59:24.818Z,53.61
2017-05-28T05:00:33.779Z,52.94
2017-05-28T05:01:42.737Z,53.32
2017-05-28T05:02:51.951Z,53.23
2017-05-28T05:04:01.009Z,52.65
2017-05-28T05:05:09.976Z,52.75
2017-05-28T05:06:18.955Z,52.65
2017-05-28T05:07:27.916Z,52.65
2017-05-28T05:08:37.215Z,53.42
2017-05-28T05:09:46.178Z,52.65
2017-05-28T05:10:55.142Z,52.77
2017-05-28T05:12:04.103Z,52.77
2017-05-28T05:13:13.065Z,52.48
2017-05-28T05:14:22.284Z,52.48
2017-05-28T05:15:31.246Z,52.68
2017-05-28T05:16:40.539Z,52.77
2017-05-28T05:17:49.498Z,52.58
2017-05-28T05:18:58.463Z,52.68
2017-05-28T05:20:07.676Z,52.39
2017-05-28T05:21:16.639Z,52.29
2017-05-28T05:22:25.929Z,52.48
2017-05-28T05:23:34.898Z,51.91
2017-05-28T05:24:43.929Z,51.91
2017-05-28T05:25:53.147Z,51.81
2017-05-28T05:27:02.106Z,52
2017-05-28T05:28:11.063Z,52
2017-05-28T05:29:20.028Z,52.51
2017-05-28T05:30:28.994Z,52
2017-05-28T05:31:38.207Z,51.64
2017-05-28T05:32:47.172Z,51.81
2017-05-28T05:33:56.131Z,51.55
2017-05-28T05:35:05.093Z,51.35
2017-05-28T05:36:14.056Z,51.17
2017-05-28T05:37:23.354Z,51.35
2017-05-28T05:38:32.321Z,50.78
2017-05-28T05:39:41.377Z,50.97
2017-05-28T05:40:50.343Z,51.07
2017-05-28T05:41:59.307Z,50.87
2017-05-28T05:43:08.521Z,50.4
2017-05-28T05:44:17.486Z,50.78
2017-05-28T05:45:26.444Z,50.68
2017-05-28T05:46:35.405Z,50.4
2017-05-28T05:47:44.364Z,50.2
2017-05-28T05:48:53.621Z,50.3
2017-05-28T05:50:02.580Z,50.1
2017-05-28T05:51:11.545Z,49.82
2017-05-28T05:52:20.506Z,50.13
2017-05-28T05:53:29.469Z,49.84
2017-05-28T05:54:38.682Z,50.04
2017-05-28T05:55:47.643Z,49.74
2017-05-28T05:56:56.604Z,49.74
2017-05-28T05:58:05.566Z,49.55
2017-05-28T05:59:14.536Z,49.46
2017-05-28T06:00:23.835Z,49.36
2017-05-28T06:01:32.797Z,48.97
2017-05-28T06:02:41.759Z,48.79
2017-05-28T06:03:50.727Z,48.79
2017-05-28T06:04:59.688Z,48.61
2017-05-28T06:06:08.903Z,48.33
2017-05-28T06:07:17.862Z,48.43
2017-05-28T06:08:26.830Z,48.03
2017-05-28T06:09:35.798Z,47.85
2017-05-28T06:10:44.763Z,47.85
2017-05-28T06:11:53.976Z,47.67
2017-05-28T06:13:02.934Z,47.49
2017-05-28T06:14:11.902Z,46.81
2017-05-28T06:15:20.865Z,46.83
2017-05-28T06:16:29.846Z,46.73
2017-05-28T06:17:39.057Z,47
2017-05-28T06:18:48.031Z,47.12
2017-05-28T06:19:57.027Z,46.81
2017-05-28T06:21:06.080Z,47.1
2017-05-28T06:22:15.044Z,46.91
2017-05-28T06:23:24.255Z,47.03
2017-05-28T06:24:33.216Z,46.91
2017-05-28T06:25:42.182Z,46.83
2017-05-28T06:26:51.236Z,47.03
2017-05-28T06:28:00.203Z,46.81
2017-05-28T06:29:09.831Z,46.83
2017-05-28T06:30:18.800Z,46.64
2017-05-28T06:31:27.767Z,46.55
2017-05-28T06:32:36.737Z,46.64
2017-05-28T06:33:46.038Z,46.64
2017-05-28T06:34:55.249Z,46.64
2017-05-28T06:36:04.216Z,46.83
2017-05-28T06:37:13.177Z,47.03
2017-05-28T06:38:22.140Z,47.03
2017-05-28T06:39:31.112Z,46.73
2017-05-28T06:40:40.321Z,46.73
2017-05-28T06:41:49.281Z,46.73
2017-05-28T06:42:58.244Z,47.03
2017-05-28T06:44:07.208Z,46.35
2017-05-28T06:45:16.176Z,46.45
2017-05-28T06:46:25.473Z,46.55
2017-05-28T06:47:34.443Z,46.83
2017-05-28T06:48:43.407Z,46.93
2017-05-28T06:49:52.369Z,46.93
2017-05-28T06:51:01.336Z,46.35
2017-05-28T06:52:10.553Z,46.45
2017-05-28T06:53:19.841Z,46.47
2017-05-28T06:54:28.808Z,46.37
2017-05-28T06:55:37.777Z,46.28
2017-05-28T06:56:46.746Z,46.95
2017-05-28T06:57:55.960Z,46.86
2017-05-28T06:59:04.926Z,46.28
2017-05-28T07:00:13.892Z,46.47
2017-05-28T07:01:22.852Z,46.56
2017-05-28T07:02:32.148Z,46.76
2017-05-28T07:03:41.685Z,46.37
2017-05-28T07:04:50.660Z,46.66
2017-05-28T07:05:59.626Z,46.37
2017-05-28T07:07:08.682Z,45.72
2017-05-28T07:08:17.642Z,46.2
2017-05-28T07:09:26.861Z,46.11
2017-05-28T07:10:35.819Z,45.82
2017-05-28T07:11:44.786Z,46.11
2017-05-28T07:12:53.755Z,45.72
2017-05-28T07:14:02.722Z,45.92
2017-05-28T07:15:11.933Z,45.82
2017-05-28T07:16:20.897Z,45.92
2017-05-28T07:17:29.865Z,45.62
2017-05-28T07:18:38.918Z,45.92
2017-05-28T07:19:47.939Z,46.11
2017-05-28T07:20:57.156Z,45.04
2017-05-28T07:22:06.122Z,45.14
2017-05-28T07:23:15.093Z,45.24
2017-05-28T07:24:24.061Z,45.34
2017-05-28T07:25:33.027Z,44.49
2017-05-28T07:26:42.329Z,44.87
2017-05-28T07:27:51.702Z,44.87
2017-05-28T07:29:00.669Z,44.78
2017-05-28T07:30:09.963Z,44.87
2017-05-28T07:31:19.019Z,44.29
2017-05-28T07:32:28.230Z,44.59
2017-05-28T07:33:37.194Z,44.68
2017-05-28T07:34:46.156Z,44.68
2017-05-28T07:35:55.121Z,44.87
2017-05-28T07:37:04.174Z,44.59
2017-05-28T07:38:13.386Z,44.39
2017-05-28T07:39:22.356Z,44.42
2017-05-28T07:40:31.329Z,44.29
2017-05-28T07:41:40.295Z,44.2
2017-05-28T07:42:49.259Z,44.22
2017-05-28T07:43:58.617Z,44.51
2017-05-28T07:45:07.575Z,44.22
2017-05-28T07:46:16.542Z,44.12
2017-05-28T07:47:25.836Z,44.32
2017-05-28T07:48:34.797Z,44.03
2017-05-28T07:49:44.190Z,44.03
2017-05-28T07:50:53.154Z,44.12
2017-05-28T07:52:02.117Z,44.03
2017-05-28T07:53:11.079Z,43.84
2017-05-28T07:54:20.050Z,43.45
2017-05-28T07:55:29.272Z,43.54
2017-05-28T07:56:38.235Z,43.54
2017-05-28T07:57:47.197Z,43.45
2017-05-28T07:58:56.166Z,43.35
2017-05-28T08:00:05.128Z,43.45
2017-05-28T08:01:14.669Z,42.99
2017-05-28T08:02:23.633Z,42.89
2017-05-28T08:03:32.591Z,43.18
2017-05-28T08:04:41.567Z,42.89
2017-05-28T08:05:50.534Z,43.18
2017-05-28T08:06:59.751Z,42.7
2017-05-28T08:08:08.711Z,42.79
2017-05-28T08:09:17.675Z,42.6
2017-05-28T08:10:26.640Z,42.6
2017-05-28T08:11:35.625Z,42.79
2017-05-28T08:12:44.844Z,42.43
2017-05-28T08:13:53.897Z,42.43
2017-05-28T08:15:02.866Z,42.33
2017-05-28T08:16:11.831Z,42.33
2017-05-28T08:17:20.794Z,42.43
2017-05-28T08:18:30.009Z,42.33
2017-05-28T08:19:38.970Z,41.85
2017-05-28T08:20:47.939Z,41.94
2017-05-28T08:21:56.899Z,42.25
2017-05-28T08:23:05.862Z,42.25
2017-05-28T08:24:15.076Z,41.97
2017-05-28T08:25:24.043Z,41.77
2017-05-28T08:26:33.006Z,41.48
2017-05-28T08:27:41.971Z,41.39
2017-05-28T08:28:50.938Z,41.39
2017-05-28T08:30:00.246Z,41.19
2017-05-28T08:31:09.295Z,41.09
2017-05-28T08:32:18.345Z,40.9
2017-05-28T08:33:27.321Z,40.9
2017-05-28T08:34:36.288Z,41.11
2017-05-28T08:35:45.642Z,40.92
2017-05-28T08:36:54.606Z,40.73
2017-05-28T08:38:03.571Z,40.73
2017-05-28T08:39:12.537Z,40.53
2017-05-28T08:40:21.497Z,40.53
2017-05-28T08:41:30.711Z,40.92
2017-05-28T08:42:39.768Z,40.53
2017-05-28T08:43:48.736Z,40.56
2017-05-28T08:44:57.706Z,40.56
2017-05-28T08:46:06.673Z,40.56
2017-05-28T08:47:15.890Z,40.26
2017-05-28T08:48:24.854Z,39.78
2017-05-28T08:49:33.826Z,39.69
2017-05-28T08:50:42.789Z,39.69
2017-05-28T08:51:51.761Z,39.78
2017-05-28T08:53:01.298Z,39.61
2017-05-28T08:54:10.414Z,39.41
2017-05-28T08:55:19.385Z,39.9
2017-05-28T08:56:28.349Z,39.22
2017-05-28T08:57:37.316Z,38.83
2017-05-28T08:58:46.548Z,39.03
2017-05-28T08:59:55.513Z,38.93
2017-05-28T09:01:04.482Z,38.83
2017-05-28T09:02:13.449Z,39.03
2017-05-28T09:03:22.419Z,39.51
2017-05-28T09:04:31.636Z,39.7
2017-05-28T09:05:40.603Z,39.22
2017-05-28T09:06:49.569Z,39.12
2017-05-28T09:07:58.537Z,39.8
2017-05-28T09:09:07.503Z,39.61
2017-05-28T09:10:17.132Z,39.61
2017-05-28T09:11:26.096Z,39.61
2017-05-28T09:12:35.064Z,39.32
2017-05-28T09:13:44.032Z,39.41
2017-05-28T09:14:53.014Z,39.03
2017-05-28T09:16:02.609Z,39.22
2017-05-28T09:17:11.579Z,39.22
2017-05-28T09:18:20.589Z,39.12
2017-05-28T09:19:29.549Z,39.51
2017-05-28T09:20:38.514Z,39.51
2017-05-28T09:21:47.737Z,39.32
2017-05-28T09:22:56.705Z,39.32
2017-05-28T09:24:05.670Z,40.01
2017-05-28T09:25:14.727Z,39.53
2017-05-28T09:26:23.693Z,39.43
2017-05-28T09:27:32.974Z,38.95
2017-05-28T09:28:42.270Z,39.24
2017-05-28T09:29:51.235Z,38.46
2017-05-28T09:31:00.203Z,38.76
2017-05-28T09:32:09.173Z,38.56
2017-05-28T09:33:18.706Z,38.85
2017-05-28T09:34:27.677Z,39.04
2017-05-28T09:35:36.641Z,39.04
2017-05-28T09:36:45.612Z,38.66
2017-05-28T09:37:54.577Z,38.56
2017-05-28T09:39:03.794Z,38.39
2017-05-28T09:40:12.763Z,38.07
2017-05-28T09:41:21.729Z,38.29
2017-05-28T09:42:30.700Z,38
2017-05-28T09:43:39.668Z,37.9
2017-05-28T09:44:48.944Z,37.9
2017-05-28T09:45:57.913Z,37.32
2017-05-28T09:47:06.880Z,37.71
2017-05-28T09:48:15.847Z,37.9
2017-05-28T09:49:24.816Z,37.9
2017-05-28T09:50:34.356Z,37.23
2017-05-28T09:51:43.320Z,37.23
2017-05-28T09:52:52.292Z,36.74
2017-05-28T09:54:01.260Z,36.83
2017-05-28T09:55:10.229Z,36.64
2017-05-28T09:56:19.448Z,36.83
2017-05-28T09:57:28.748Z,36.64
2017-05-28T09:58:37.717Z,36.44
2017-05-28T09:59:46.846Z,36.44
2017-05-28T10:00:55.820Z,35.86
2017-05-28T10:02:05.054Z,36.06
2017-05-28T10:03:14.015Z,36.54
2017-05-28T10:04:23.046Z,35.86
2017-05-28T10:05:32.023Z,35.59
2017-05-28T10:06:40.989Z,35.67
2017-05-28T10:07:50.209Z,35.77
2017-05-28T10:08:59.179Z,35.59
2017-05-28T10:10:08.152Z,35.59
2017-05-28T10:11:17.121Z,35.86
2017-05-28T10:12:26.088Z,35.88
2017-05-28T10:13:35.308Z,35.88
2017-05-28T10:14:44.280Z,35.49
2017-05-28T10:15:53.264Z,35.69
2017-05-28T10:17:02.226Z,35.4
2017-05-28T10:18:11.201Z,35.78
2017-05-28T10:19:20.426Z,35.21
2017-05-28T10:20:29.397Z,35.11
2017-05-28T10:21:38.371Z,35.4
2017-05-28T10:22:47.339Z,35.3
2017-05-28T10:23:56.312Z,35.21
2017-05-28T10:25:05.533Z,35.01
2017-05-28T10:26:14.502Z,35.11
2017-05-28T10:27:23.470Z,34.72
2017-05-28T10:28:32.436Z,34.43
2017-05-28T10:29:41.397Z,34.64
2017-05-28T10:30:50.614Z,34.53
2017-05-28T10:31:59.576Z,34.81
2017-05-28T10:33:08.547Z,35.03
2017-05-28T10:34:17.517Z,35.13
2017-05-28T10:35:26.481Z,34.43
2017-05-28T10:36:35.706Z,33.96
2017-05-28T10:37:44.757Z,33.96
2017-05-28T10:38:53.727Z,34.16
2017-05-28T10:40:02.720Z,33.96
2017-05-28T10:41:11.689Z,33.96
2017-05-28T10:42:21.230Z,33.96
2017-05-28T10:43:30.200Z,33.96
2017-05-28T10:44:39.169Z,34.16
2017-05-28T10:45:48.143Z,34.16
2017-05-28T10:46:57.104Z,34.06
2017-05-28T10:48:06.329Z,34.36
2017-05-28T10:49:15.298Z,33.96
2017-05-28T10:50:24.268Z,34.27
2017-05-28T10:51:33.232Z,34.25
2017-05-28T10:52:42.251Z,33.88
2017-05-28T10:53:51.465Z,33.98
2017-05-28T10:55:00.440Z,33.98
2017-05-28T10:56:09.493Z,34.27
2017-05-28T10:57:18.470Z,34.08
2017-05-28T10:58:27.435Z,34.17
2017-05-28T10:59:36.748Z,33.39
2017-05-28T11:00:45.718Z,33.39
2017-05-28T11:01:54.686Z,33.49
2017-05-28T11:03:03.656Z,33.29
2017-05-28T11:04:12.624Z,33.01
2017-05-28T11:05:22.220Z,33.11
2017-05-28T11:06:31.271Z,32.82
2017-05-28T11:07:40.235Z,32.54
2017-05-28T11:08:49.534Z,32.73
2017-05-28T11:09:58.505Z,32.82
2017-05-28T11:11:07.812Z,32.54
2017-05-28T11:12:16.778Z,32.54
2017-05-28T11:13:25.744Z,32.54
2017-05-28T11:14:34.775Z,32.54
2017-05-28T11:15:43.741Z,32.64
2017-05-28T11:16:52.954Z,32.54
2017-05-28T11:18:01.921Z,32.54
2017-05-28T11:19:10.885Z,32.64
2017-05-28T11:20:19.857Z,32.65
2017-05-28T11:21:28.853Z,32.34
2017-05-28T11:22:38.066Z,32.24
2017-05-28T11:23:47.047Z,32.24
2017-05-28T11:24:56.340Z,31.95
2017-05-28T11:26:05.305Z,31.85
2017-05-28T11:27:14.281Z,31.95
2017-05-28T11:28:23.494Z,32.05
2017-05-28T11:29:32.463Z,32.17
2017-05-28T11:30:41.523Z,32.15
2017-05-28T11:31:50.490Z,32.15
2017-05-28T11:32:59.457Z,32.26
2017-05-28T11:34:08.676Z,32.07
2017-05-28T11:35:17.648Z,31.97
2017-05-28T11:36:26.619Z,31.58
2017-05-28T11:37:35.596Z,31.57
2017-05-28T11:38:44.889Z,31.47
2017-05-28T11:39:54.439Z,31.68
2017-05-28T11:41:03.513Z,31.48
2017-05-28T11:42:12.571Z,31.29
2017-05-28T11:43:21.541Z,31.38
2017-05-28T11:44:30.601Z,30.12
2017-05-28T11:45:39.910Z,30.61
2017-05-28T11:46:48.874Z,30.8
2017-05-28T11:47:57.859Z,30.88
2017-05-28T11:49:06.828Z,30.9
2017-05-28T11:50:15.800Z,31.08
2017-05-28T11:51:25.016Z,31.48
2017-05-28T11:52:33.983Z,31.27
2017-05-28T11:53:42.958Z,31.57
2017-05-28T11:54:51.929Z,31.85
2017-05-28T11:56:00.983Z,31.95
2017-05-28T11:57:10.207Z,31.66
2017-05-28T11:58:19.176Z,31.37
2017-05-28T11:59:28.141Z,31.18
2017-05-28T12:00:37.206Z,30.98
2017-05-28T12:01:46.174Z,31.18
2017-05-28T12:02:55.394Z,30.98
2017-05-28T12:04:04.359Z,31.38
2017-05-28T12:05:13.323Z,31.18
2017-05-28T12:06:22.289Z,31.08
2017-05-28T12:07:31.260Z,31.1
2017-05-28T12:08:40.475Z,31.27
2017-05-28T12:09:49.796Z,31.1
2017-05-28T12:10:58.767Z,31.1
2017-05-28T12:12:08.057Z,31
2017-05-28T12:13:17.028Z,31.38
2017-05-28T12:14:26.244Z,31.48
2017-05-28T12:15:35.214Z,30.9
2017-05-28T12:16:44.178Z,31.48
2017-05-28T12:17:53.202Z,31.38
2017-05-28T12:19:02.172Z,31.38
2017-05-28T12:20:11.398Z,31.77
2017-05-28T12:21:20.365Z,31.57
2017-05-28T12:22:29.331Z,31.66
2017-05-28T12:23:38.298Z,31.18
2017-05-28T12:24:47.275Z,31.18
2017-05-28T12:25:56.581Z,31.18
2017-05-28T12:27:05.551Z,31.48
2017-05-28T12:28:14.517Z,31.38
2017-05-28T12:29:23.817Z,31
2017-05-28T12:30:33.114Z,30.9
2017-05-28T12:31:42.339Z,31
2017-05-28T12:32:51.632Z,30.8
2017-05-28T12:34:00.606Z,31.29
2017-05-28T12:35:09.586Z,31
2017-05-28T12:36:18.561Z,31.29
2017-05-28T12:37:27.830Z,30.9
2017-05-28T12:38:36.800Z,30.9
2017-05-28T12:39:45.768Z,31.1
2017-05-28T12:40:54.733Z,31.48
2017-05-28T12:42:03.707Z,31.27
2017-05-28T12:43:12.926Z,31.27
2017-05-28T12:44:21.898Z,31.47
2017-05-28T12:45:30.866Z,31
2017-05-28T12:46:39.834Z,31.1
2017-05-28T12:47:48.805Z,31.08
2017-05-28T12:48:58.033Z,31.19
2017-05-28T12:50:07.003Z,31.58
2017-05-28T12:51:15.967Z,31.68
2017-05-28T12:52:24.939Z,31.29
2017-05-28T12:53:33.905Z,31.58
2017-05-28T12:54:42.876Z,31.68
2017-05-28T12:55:51.932Z,31.48
2017-05-28T12:57:00.907Z,31.57
2017-05-28T12:58:10.198Z,31.37
2017-05-28T12:59:19.422Z,31.1
2017-05-28T13:00:28.390Z,30.9
2017-05-28T13:01:37.359Z,31.1
2017-05-28T13:02:46.333Z,31
2017-05-28T13:03:55.309Z,30.71
2017-05-28T13:05:04.527Z,30.61
2017-05-28T13:06:13.508Z,30.22
2017-05-28T13:07:22.480Z,30.32
2017-05-28T13:08:31.447Z,31.1
2017-05-28T13:09:40.417Z,31.19
2017-05-28T13:10:49.630Z,31.29
2017-05-28T13:11:58.601Z,31.29
2017-05-28T13:13:07.575Z,31.1
2017-05-28T13:14:16.872Z,30.61
2017-05-28T13:15:25.848Z,30.12
2017-05-28T13:16:35.114Z,30.24
2017-05-28T13:17:44.078Z,30.52
2017-05-28T13:18:53.060Z,30.24
2017-05-28T13:20:02.031Z,30.43
2017-05-28T13:21:10.997Z,30.52
2017-05-28T13:22:20.216Z,30.52
2017-05-28T13:23:29.186Z,30.52
2017-05-28T13:24:38.150Z,30.52
2017-05-28T13:25:47.118Z,30.52
2017-05-28T13:26:56.100Z,30.54
2017-05-28T13:28:05.321Z,30.35
2017-05-28T13:29:14.287Z,30.15
2017-05-28T13:30:23.267Z,30.35
2017-05-28T13:31:32.236Z,30.64
2017-05-28T13:32:41.204Z,30.44
2017-05-28T13:33:50.426Z,30.44
2017-05-28T13:34:59.393Z,30.54
2017-05-28T13:36:08.365Z,30.64
2017-05-28T13:37:17.337Z,30.25
2017-05-28T13:38:26.310Z,30.35
2017-05-28T13:39:35.582Z,30.25
2017-05-28T13:40:44.548Z,30.54
2017-05-28T13:41:53.605Z,30.62
2017-05-28T13:43:02.580Z,30.83
2017-05-28T13:44:11.546Z,30.93
2017-05-28T13:45:20.769Z,30.52
2017-05-28T13:46:29.740Z,30.52
2017-05-28T13:47:38.709Z,30.64
2017-05-28T13:48:47.679Z,30.82
2017-05-28T13:49:56.664Z,31.13
2017-05-28T13:51:05.884Z,31.01
2017-05-28T13:52:14.854Z,30.91
2017-05-28T13:53:23.832Z,31.21
2017-05-28T13:54:32.805Z,31.21
2017-05-28T13:55:41.774Z,31.01
2017-05-28T13:56:51.325Z,31.03
2017-05-28T13:58:00.393Z,30.93
2017-05-28T13:59:09.365Z,30.93
2017-05-28T14:00:18.741Z,30.91
2017-05-28T14:01:27.707Z,31.01
2017-05-28T14:02:36.921Z,30.91
2017-05-28T14:03:45.891Z,30.93
2017-05-28T14:04:54.858Z,30.93
2017-05-28T14:06:03.828Z,30.74
2017-05-28T14:07:12.795Z,31.03
2017-05-28T14:08:22.020Z,30.52
2017-05-28T14:09:31.318Z,30.54
2017-05-28T14:10:40.283Z,30.15
2017-05-28T14:11:49.257Z,29.75
2017-05-28T14:12:58.232Z,30.05
2017-05-28T14:14:07.452Z,30.14
2017-05-28T14:15:16.430Z,30.05
2017-05-28T14:16:25.400Z,29.94
2017-05-28T14:17:34.372Z,30.33
2017-05-28T14:18:43.341Z,30.04
2017-05-28T14:19:52.563Z,30.33
2017-05-28T14:21:01.534Z,30.52
2017-05-28T14:22:10.500Z,30.43
2017-05-28T14:23:19.538Z,30.33
2017-05-28T14:24:28.507Z,30.14
2017-05-28T14:25:37.729Z,30.41
2017-05-28T14:26:46.790Z,30.41
2017-05-28T14:27:55.780Z,30.51
2017-05-28T14:29:04.756Z,30.41
2017-05-28T14:30:13.729Z,30.43
2017-05-28T14:31:23.080Z,30.33
2017-05-28T14:32:32.047Z,30.51
2017-05-28T14:33:41.009Z,30.52
2017-05-28T14:34:49.980Z,30.51
2017-05-28T14:35:58.950Z,30.32
2017-05-28T14:37:08.171Z,30.22
2017-05-28T14:38:17.137Z,30.41
2017-05-28T14:39:26.107Z,30.8
2017-05-28T14:40:35.398Z,30.9
2017-05-28T14:41:44.370Z,31.29
2017-05-28T14:42:53.587Z,31.19
2017-05-28T14:44:02.559Z,31.29
2017-05-28T14:45:11.523Z,31.48
2017-05-28T14:46:20.497Z,31.68
2017-05-28T14:47:29.522Z,31.77
2017-05-28T14:48:38.744Z,31.85
2017-05-28T14:49:47.823Z,31.76
2017-05-28T14:50:56.796Z,32.07
2017-05-28T14:52:05.759Z,31.68